Ames, NE

5:21 PM CST on March 02, 2015 (GMT -0600)
Blair Municipal | Change Station
CLOSE
Current Station
Airport
Location: Blair,
Elevation: 1325 ft
Nearby Weather Stations

Elev 1325 ft 41.41 °N, 96.11 °W | Updated 6 minutes ago

Overcast
Overcast
38 °F
Feels Like 30 °F
N
16
Wind Variable Wind from SSE
Gusts 22 mph

Today
High -- | Low -- °F
--% Chance of Precip.
Yesterday
High -- | Low -- °F
Precip. -- in
6:59 AM 6:18 PM
Waxing Gibbous, 93% visible
Pressure 30.10 in
Visibility 10.0 miles
Clouds Scattered Clouds 6500 ft
Windchill 30 °F
Dew Point 19 °F
Humidity 46%
Rainfall 0.00 in
Snow Depth Not available.
UV 0 out of 12
Pollen 2.10 out of 12
Air Quality Not available.
Flu Activity Not available.
METAR KBTA 022315Z AUTO 15014G19KT 10SM SCT065 04/M07 A3010 RMK AO2 T00361071

More Conditions Fewer Conditions

Pressure 30.10 in
Visibility 10.0 miles
Clouds Scattered Clouds 6500 ft
Windchill 30 °F
Dew Point 19 °F
Humidity 46%
Rainfall 0.00 in
Snow Depth Not available.
UV 0 out of 12
Pollen 2.10 out of 12
Air Quality Not available.
Flu Activity Not available.
METAR KBTA 022315Z AUTO 15014G19KT 10SM SCT065 04/M07 A3010 RMK AO2 T00361071

More Conditions Fewer Conditions

10-Day Weather Forecast

Almanac

Astronomy

Mar. 02, 2015 Rise Set
Actual Time
Civil Twilight
Nautical Twilight
Astronomical Twilight
Moon
Length of Visible Light
Length of Day
Tomorrow will be .
, % of the Moon is Illuminated

Today's Extremes

State Highs State Lows

Community

WunderPhotos

Upload Photos

1,801,997 photos uploaded!

WunderBlogs® & News

Nearby

Air Quality

  Air Quality AQ Index Pollutant
Not available.

Snow Depth

Station Depth Elevation

Earthquake Activity

City Distance Mag. Time & Date
Minimum magnitude displayed is 2.5.

Coastal Water Temperatures

Place Temperature

Nearby Weather Stations